ETD987 OMDB-OBBI
Flight info
| Callsign | ETD987 |
|---|---|
| Flight time | N/A |
| Altitude | 26000 |
| Route | NABIX3F NABIX P699 ORMID M556 ORDIG ORDIG1 |
| Aircraft | A20N/M-SDE2E3FGHIRWXY/LB1 |
Departure
| Time | 2026-04-25 18:38 |
|---|---|
| Airport | Dubai International Airport (OMDB) |
Arrival
| Time | N/A |
|---|---|
| Airport | Bahrain International Airport (OBBI) |
| Time | Latitude | Longitude | Altitude | Speed | Heading |
|---|---|---|---|---|---|
| 2026-04-25 18:00 | 25.24795 | 55.36428 | 24 ft | 0 kts | 211° |
| 2026-04-25 18:15 | 25.24814 | 55.36441 | 21 ft | 4 kts | 211° |
| 2026-04-25 18:16 | 25.24836 | 55.36455 | 24 ft | 4 kts | 211° |
| 2026-04-25 18:16 | 25.24857 | 55.36471 | 25 ft | 4 kts | 221° |
| 2026-04-25 18:16 | 25.24875 | 55.36512 | 24 ft | 1 kts | 301° |
| 2026-04-25 18:18 | 25.24874 | 55.36512 | 22 ft | 0 kts | 302° |
| 2026-04-25 18:23 | 25.24880 | 55.36502 | 23 ft | 5 kts | 302° |
| 2026-04-25 18:23 | 25.24909 | 55.36452 | 22 ft | 11 kts | 302° |
| 2026-04-25 18:23 | 25.24958 | 55.36365 | 23 ft | 13 kts | 301° |
| 2026-04-25 18:23 | 25.24996 | 55.36296 | 22 ft | 9 kts | 302° |
| 2026-04-25 18:24 | 25.25028 | 55.36239 | 23 ft | 0 kts | 302° |
| 2026-04-25 18:24 | 25.25031 | 55.36235 | 22 ft | 2 kts | 302° |
| 2026-04-25 18:24 | 25.25037 | 55.36225 | 22 ft | 2 kts | 302° |
| 2026-04-25 18:24 | 25.25043 | 55.36213 | 23 ft | 0 kts | 302° |
| 2026-04-25 18:25 | 25.25048 | 55.36205 | 22 ft | 3 kts | 302° |
| 2026-04-25 18:25 | 25.25062 | 55.36181 | 22 ft | 0 kts | 302° |
| 2026-04-25 18:25 | 25.25067 | 55.36172 | 22 ft | 3 kts | 302° |
| 2026-04-25 18:25 | 25.25090 | 55.36132 | 22 ft | 9 kts | 302° |
| 2026-04-25 18:26 | 25.25134 | 55.36054 | 22 ft | 15 kts | 302° |
| 2026-04-25 18:26 | 25.25190 | 55.35952 | 21 ft | 13 kts | 300° |
| 2026-04-25 18:26 | 25.25227 | 55.35885 | 21 ft | 11 kts | 302° |
| 2026-04-25 18:26 | 25.25278 | 55.35794 | 22 ft | 16 kts | 302° |
| 2026-04-25 18:27 | 25.25336 | 55.35691 | 21 ft | 14 kts | 302° |
| 2026-04-25 18:27 | 25.25374 | 55.35625 | 23 ft | 9 kts | 302° |
| 2026-04-25 18:27 | 25.25411 | 55.35558 | 21 ft | 11 kts | 301° |
| 2026-04-25 18:27 | 25.25446 | 55.35495 | 23 ft | 10 kts | 301° |
| 2026-04-25 18:28 | 25.25487 | 55.35420 | 23 ft | 13 kts | 302° |
| 2026-04-25 18:28 | 25.25540 | 55.35328 | 21 ft | 16 kts | 302° |
| 2026-04-25 18:28 | 25.25572 | 55.35271 | 24 ft | 2 kts | 302° |
| 2026-04-25 18:29 | 25.25608 | 55.35208 | 21 ft | 8 kts | 302° |
| 2026-04-25 18:29 | 25.25642 | 55.35147 | 21 ft | 11 kts | 302° |
| 2026-04-25 18:30 | 25.25675 | 55.35142 | 21 ft | 6 kts | 38° |
| 2026-04-25 18:30 | 25.25717 | 55.35172 | 21 ft | 8 kts | 32° |
| 2026-04-25 18:30 | 25.25775 | 55.35212 | 21 ft | 11 kts | 31° |
| 2026-04-25 18:30 | 25.25882 | 55.35283 | 21 ft | 16 kts | 31° |
| 2026-04-25 18:31 | 25.25978 | 55.35357 | 22 ft | 15 kts | 45° |
| 2026-04-25 18:31 | 25.25991 | 55.35377 | 24 ft | 2 kts | 55° |
| 2026-04-25 18:31 | 25.26009 | 55.35497 | 23 ft | 20 kts | 109° |
| 2026-04-25 18:31 | 25.25964 | 55.35600 | 23 ft | 15 kts | 120° |
| 2026-04-25 18:32 | 25.25904 | 55.35709 | 23 ft | 18 kts | 121° |
| 2026-04-25 18:32 | 25.25836 | 55.35829 | 24 ft | 20 kts | 122° |
| 2026-04-25 18:32 | 25.25787 | 55.35919 | 23 ft | 21 kts | 119° |
| 2026-04-25 18:32 | 25.25714 | 55.36045 | 23 ft | 17 kts | 123° |
| 2026-04-25 18:33 | 25.25646 | 55.36169 | 24 ft | 19 kts | 124° |
| 2026-04-25 18:33 | 25.25571 | 55.36301 | 24 ft | 21 kts | 122° |
| 2026-04-25 18:33 | 25.25488 | 55.36446 | 24 ft | 24 kts | 122° |
| 2026-04-25 18:33 | 25.25397 | 55.36611 | 24 ft | 26 kts | 122° |
| 2026-04-25 18:34 | 25.25296 | 55.36791 | 24 ft | 28 kts | 122° |
| 2026-04-25 18:34 | 25.25187 | 55.36985 | 25 ft | 31 kts | 121° |
| 2026-04-25 18:34 | 25.25081 | 55.37170 | 25 ft | 28 kts | 122° |
| 2026-04-25 18:34 | 25.24979 | 55.37352 | 28 ft | 24 kts | 122° |
| 2026-04-25 18:35 | 25.24887 | 55.37518 | 26 ft | 26 kts | 121° |
| 2026-04-25 18:35 | 25.24868 | 55.37553 | 27 ft | 4 kts | 121° |
| 2026-04-25 18:35 | 25.24830 | 55.37621 | 25 ft | 13 kts | 122° |
| 2026-04-25 18:35 | 25.24777 | 55.37713 | 25 ft | 16 kts | 122° |
| 2026-04-25 18:36 | 25.24720 | 55.37813 | 25 ft | 9 kts | 121° |
| 2026-04-25 18:36 | 25.24682 | 55.37881 | 25 ft | 11 kts | 121° |
| 2026-04-25 18:36 | 25.24690 | 55.37964 | 27 ft | 12 kts | 44° |
| 2026-04-25 18:36 | 25.24764 | 55.38009 | 29 ft | 11 kts | 14° |
| 2026-04-25 18:37 | 25.24837 | 55.37972 | 30 ft | 13 kts | 305° |
| 2026-04-25 18:37 | 25.24893 | 55.37870 | 30 ft | 27 kts | 302° |
| 2026-04-25 18:37 | 25.25167 | 55.37381 | 32 ft | 119 kts | 301° |
| 2026-04-25 18:37 | 25.25725 | 55.36379 | 168 ft | 171 kts | 302° |
| 2026-04-25 18:38 | 25.26369 | 55.35219 | 980 ft | 180 kts | 302° |
| 2026-04-25 18:38 | 25.27043 | 55.34000 | 1870 ft | 188 kts | 302° |
| 2026-04-25 18:38 | 25.27682 | 55.32842 | 2198 ft | 164 kts | 302° |
| 2026-04-25 18:38 | 25.28301 | 55.31693 | 2186 ft | 179 kts | 300° |
| 2026-04-25 18:39 | 25.28906 | 55.30494 | 3332 ft | 184 kts | 295° |
| 2026-04-25 18:39 | 25.29182 | 55.28953 | 3794 ft | 232 kts | 266° |
| 2026-04-25 18:39 | 25.28616 | 55.27065 | 3971 ft | 288 kts | 246° |
| 2026-04-25 18:39 | 25.27682 | 55.24932 | 3999 ft | 333 kts | 245° |
| 2026-04-25 18:40 | 25.26622 | 55.22514 | 3996 ft | 347 kts | 245° |
| 2026-04-25 18:40 | 25.25908 | 55.20873 | 4011 ft | 362 kts | 245° |